Time;durP1;ratioP1;P1;durP2;ratioP2;P2;SDS_P1;SDS_P2;PMS_P1;PMS_P2;Temp;Humidity;BMP_temperature;BMP_pressure;BME280_temperature;BME280_humidity;BME280_pressure;Samples;Min_cycle;Max_cycle;Signal;HPM_P1;HPM_P2
2022/02/16 00:00:26;;;;;;;;;0.50;0.50;;;;;20.48;38.11;100448.13;5056641;28;45454;-50
2022/02/16 00:02:52;;;;;;;;;0.00;0.00;;;;;20.48;37.81;100445.47;5056800;28;45336;-49
2022/02/16 00:05:18;;;;;;;;;2.00;0.25;;;;;20.47;38.21;100442.03;5055344;28;45386;-49
2022/02/16 00:07:44;;;;;;;;;0.00;0.00;;;;;20.45;37.65;100437.81;5056831;28;45170;-45
2022/02/16 00:10:12;;;;;;;;;0.00;0.00;;;;;20.44;37.81;100430.84;5056558;28;45704;-46
2022/02/16 00:12:39;;;;;;;;;0.75;0.00;;;;;20.44;38.22;100431.66;5038483;28;45761;-46
2022/02/16 00:15:06;;;;;;;;;0.75;0.00;;;;;20.42;37.77;100419.56;5056702;28;45348;-44
2022/02/16 00:17:31;;;;;;;;;0.00;0.00;;;;;20.42;38.24;100407.22;5056688;28;45380;-45
2022/02/16 00:19:56;;;;;;;;;1.00;0.00;;;;;20.39;37.68;100392.47;5056302;28;45335;-44
2022/02/16 00:22:22;;;;;;;;;0.00;0.00;;;;;20.40;37.87;100403.84;5056460;28;45502;-48
2022/02/16 00:24:47;;;;;;;;;0.00;0.00;;;;;20.36;37.73;100392.66;5056467;28;45660;-46
2022/02/16 00:27:13;;;;;;;;;0.00;0.00;;;;;20.34;38.12;100386.63;5056697;28;45434;-46
2022/02/16 00:29:38;;;;;;;;;0.00;0.00;;;;;20.35;38.39;100392.75;5056488;28;45403;-49
2022/02/16 00:32:04;;;;;;;;;0.00;0.00;;;;;20.34;37.74;100401.59;5056554;28;45224;-46
2022/02/16 00:34:29;;;;;;;;;0.00;0.00;;;;;20.33;38.04;100402.53;5056535;28;45268;-48
2022/02/16 00:36:56;;;;;;;;;0.50;0.50;;;;;20.32;38.21;100383.28;5056608;28;45363;-43
2022/02/16 00:39:22;;;;;;;;;0.00;0.00;;;;;20.29;38.03;100388.72;5056223;28;47503;-47
2022/02/16 00:41:47;;;;;;;;;0.75;0.00;;;;;20.28;38.03;100381.75;5056367;28;45408;-46
2022/02/16 00:44:13;;;;;;;;;0.00;0.00;;;;;20.27;38.42;100382.69;5056347;28;45476;-48
2022/02/16 00:46:38;;;;;;;;;0.25;0.25;;;;;20.28;38.57;100379.13;5056776;28;45604;-46
2022/02/16 00:49:04;;;;;;;;;0.00;0.00;;;;;20.25;38.09;100371.41;5054686;28;46657;-47
2022/02/16 00:51:29;;;;;;;;;0.00;0.00;;;;;20.26;38.57;100369.66;5056183;28;45430;-49
2022/02/16 00:53:54;;;;;;;;;0.50;0.50;;;;;20.25;38.30;100368.78;5056041;28;45726;-51
2022/02/16 00:56:19;;;;;;;;;0.00;0.00;;;;;20.23;38.24;100360.13;5058521;28;45913;-51
2022/02/16 00:58:45;;;;;;;;;0.00;0.00;;;;;20.22;38.21;100361.09;5059239;28;46178;-47
2022/02/16 01:01:10;;;;;;;;;0.00;0.00;;;;;20.21;38.53;100347.09;5059516;28;45333;-44
2022/02/16 01:03:37;;;;;;;;;0.75;0.00;;;;;20.20;38.14;100347.19;5059882;28;45407;-50
2022/02/16 01:06:03;;;;;;;;;0.00;0.00;;;;;20.19;38.24;100342.88;5059576;28;45458;-46
2022/02/16 01:08:29;;;;;;;;;0.00;0.00;;;;;20.18;38.74;100336.75;5059382;28;45338;-50
2022/02/16 01:10:54;;;;;;;;;0.00;0.00;;;;;20.15;38.33;100321.16;5059197;28;45203;-47
2022/02/16 01:13:21;;;;;;;;;0.00;0.00;;;;;20.17;38.18;100329.81;5059325;28;45357;-49
2022/02/16 01:15:46;;;;;;;;;0.00;0.00;;;;;20.15;38.54;100317.66;5059293;28;45216;-46
2022/02/16 01:18:12;;;;;;;;;0.00;0.00;;;;;20.15;38.69;100315.03;5059079;28;46601;-46
2022/02/16 01:20:38;;;;;;;;;0.00;0.00;;;;;20.15;38.69;100310.63;5059372;28;45236;-47
2022/02/16 01:23:03;;;;;;;;;0.00;0.00;;;;;20.13;38.78;100311.66;5059215;28;45376;-47
2022/02/16 01:25:29;;;;;;;;;0.75;0.00;;;;;20.12;38.29;100312.63;5059208;28;45494;-46
2022/02/16 01:27:54;;;;;;;;;0.00;0.00;;;;;20.10;38.88;100299.53;5040729;28;47119;-47
2022/02/16 01:30:20;;;;;;;;;0.00;0.00;;;;;20.11;38.60;100287.25;5058933;28;45368;-45
2022/02/16 01:32:45;;;;;;;;;0.00;0.00;;;;;20.11;38.46;100308.28;5059004;28;45308;-45
2022/02/16 01:35:10;;;;;;;;;0.00;0.00;;;;;20.10;38.39;100298.72;5059491;28;45673;-44
2022/02/16 01:37:36;;;;;;;;;0.00;0.00;;;;;20.07;38.85;100295.31;5059041;28;45620;-46
2022/02/16 01:40:01;;;;;;;;;1.25;0.00;;;;;20.09;38.32;100305.75;5058827;28;45260;-47
2022/02/16 01:42:27;;;;;;;;;0.75;0.00;;;;;20.07;38.71;100294.47;5059069;28;45323;-46
2022/02/16 01:44:52;;;;;;;;;0.00;0.00;;;;;20.07;38.36;100287.44;5059227;28;45573;-44
2022/02/16 01:47:17;;;;;;;;;0.00;0.00;;;;;20.05;38.99;100284.03;5058616;28;45534;-44
2022/02/16 01:49:44;;;;;;;;;0.25;0.00;;;;;20.05;38.99;100280.59;5058845;28;45319;-46
2022/02/16 01:52:10;;;;;;;;;0.00;0.00;;;;;20.06;38.98;100279.66;5059144;28;45412;-45
2022/02/16 01:54:36;;;;;;;;;0.00;0.00;;;;;20.06;38.67;100274.38;5059023;28;45339;-44
2022/02/16 01:57:04;;;;;;;;;0.00;0.00;;;;;20.05;38.62;100268.25;5058499;28;45316;-46
2022/02/16 01:59:30;;;;;;;;;1.00;0.00;;;;;20.03;39.16;100264.03;5057936;28;45673;-44
2022/02/16 02:01:56;;;;;;;;;0.00;0.00;;;;;20.02;38.83;100257.91;5058619;28;45451;-45
2022/02/16 02:04:21;;;;;;;;;0.00;0.00;;;;;20.04;38.76;100255.22;5058760;28;45430;-47
2022/02/16 02:06:47;;;;;;;;;0.00;0.00;;;;;20.01;38.49;100243.06;5057505;28;46569;-45
2022/02/16 02:09:14;;;;;;;;;0.00;0.00;;;;;20.02;38.83;100242.13;5058784;28;45439;-47
2022/02/16 02:11:40;;;;;;;;;0.00;0.00;;;;;20.01;38.55;100229.91;5040593;28;45386;-45
2022/02/16 02:14:09;;;;;;;;;0.25;0.25;;;;;19.99;38.68;100244.97;5040382;28;45595;-47
2022/02/16 02:16:38;;;;;;;;;0.00;0.00;;;;;20.01;38.82;100237.81;5058318;28;45424;-44
2022/02/16 02:19:04;;;;;;;;;0.00;0.00;;;;;20.01;39.11;100231.72;5058332;28;45306;-46
2022/02/16 02:21:29;;;;;;;;;0.00;0.00;;;;;20.00;38.89;100233.53;5058514;28;45399;-44
2022/02/16 02:23:56;;;;;;;;;0.00;0.00;;;;;19.98;38.74;100235.41;5058572;28;45399;-44
2022/02/16 02:26:22;;;;;;;;;0.00;0.00;;;;;19.99;38.92;100220.44;5058014;28;46190;-46
2022/02/16 02:28:47;;;;;;;;;0.00;0.00;;;;;19.97;38.82;100215.28;5058195;28;45324;-47
2022/02/16 02:31:13;;;;;;;;;0.00;0.00;;;;;19.98;39.23;100213.50;5058629;28;45340;-47
2022/02/16 02:33:39;;;;;;;;;0.00;0.00;;;;;19.96;39.11;100207.47;5058304;28;45549;-46
2022/02/16 02:36:06;;;;;;;;;1.00;0.00;;;;;19.96;39.10;100200.44;5057971;28;46117;-46
2022/02/16 02:38:35;;;;;;;;;0.00;0.00;;;;;19.95;39.16;100204.03;5040079;28;45373;-46
2022/02/16 02:41:04;;;;;;;;;0.00;0.00;;;;;19.92;38.97;100194.53;5058068;28;45293;-47
2022/02/16 02:43:31;;;;;;;;;0.00;0.00;;;;;19.92;39.12;100178.75;5058200;28;45482;-47
2022/02/16 02:45:56;;;;;;;;;0.00;0.00;;;;;19.93;38.80;100179.59;5057791;28;46308;-50
2022/02/16 02:48:24;;;;;;;;;0.00;0.00;;;;;19.92;39.32;100177.91;5057708;28;45907;-48
2022/02/16 02:50:50;;;;;;;;;0.00;0.00;;;;;19.93;39.01;100174.34;5057779;28;45471;-47
2022/02/16 02:53:16;;;;;;;;;0.00;0.00;;;;;19.92;38.80;100167.38;5040253;28;45933;-48
2022/02/16 02:55:41;;;;;;;;;0.00;0.00;;;;;19.88;38.76;100166.75;5057962;28;46237;-46
2022/02/16 02:58:07;;;;;;;;;0.00;0.00;;;;;19.89;39.37;100151.81;5057721;28;45363;-46
2022/02/16 03:00:32;;;;;;;;;0.00;0.00;;;;;19.89;38.92;100157.91;5057794;28;45256;-49
2022/02/16 03:02:57;;;;;;;;;0.00;0.00;;;;;19.89;39.26;100157.09;5057814;28;45490;-47
2022/02/16 03:05:23;;;;;;;;;0.00;0.00;;;;;19.87;39.24;100151.91;5039413;28;46473;-50
2022/02/16 03:07:48;;;;;;;;;0.00;0.00;;;;;19.84;39.16;100143.34;5057391;28;45338;-48
2022/02/16 03:10:13;;;;;;;;;0.00;0.00;;;;;19.85;39.51;100139.75;5057785;28;45359;-48
2022/02/16 03:12:39;;;;;;;;;0.00;0.00;;;;;19.85;39.56;100134.50;5057728;28;45534;-48
2022/02/16 03:15:05;;;;;;;;;0.00;0.00;;;;;19.86;39.23;100121.28;5057145;28;45359;-50
2022/02/16 03:17:30;;;;;;;;;0.00;0.00;;;;;19.85;39.37;100129.25;5057300;28;45434;-48
2022/02/16 03:19:55;;;;;;;;;0.00;0.00;;;;;19.86;39.65;100125.72;5056190;28;45414;-49
2022/02/16 03:22:21;;;;;;;;;0.00;0.00;;;;;19.84;38.96;100117.03;5057594;28;45554;-52
2022/02/16 03:24:46;;;;;;;;;0.00;0.00;;;;;19.84;39.45;100109.16;5056190;28;46589;-49
2022/02/16 03:27:12;;;;;;;;;1.00;0.00;;;;;19.84;39.37;100111.78;5057073;28;45409;-46
2022/02/16 03:29:37;;;;;;;;;0.00;0.00;;;;;19.83;39.39;100104.81;5057386;28;45363;-46
2022/02/16 03:32:03;;;;;;;;;0.00;0.00;;;;;19.82;39.58;100103.13;5057575;28;45424;-49
2022/02/16 03:34:29;;;;;;;;;1.00;1.00;;;;;19.80;39.21;100095.34;5057003;28;46341;-45
2022/02/16 03:36:54;;;;;;;;;0.00;0.00;;;;;19.83;39.56;100094.31;5057110;28;45354;-45
2022/02/16 03:39:19;;;;;;;;;0.00;0.00;;;;;19.83;39.26;100099.56;5055769;28;45265;-47
2022/02/16 03:41:45;;;;;;;;;0.00;0.00;;;;;19.82;39.08;100095.25;5057595;28;45246;-47
2022/02/16 03:44:10;;;;;;;;;0.00;0.00;;;;;19.81;39.38;100090.94;5056878;28;45429;-46
2022/02/16 03:46:36;;;;;;;;;0.75;0.00;;;;;19.81;39.69;100085.66;5056953;28;45368;-49
2022/02/16 03:49:01;;;;;;;;;0.00;0.00;;;;;19.82;39.01;100082.09;5057170;28;45375;-47
2022/02/16 03:51:26;;;;;;;;;0.00;0.00;;;;;19.80;39.86;100084.84;5057240;28;45371;-50
2022/02/16 03:53:52;;;;;;;;;0.00;0.00;;;;;19.80;39.81;100073.47;5056842;28;46289;-48
2022/02/16 03:56:17;;;;;;;;;0.00;0.00;;;;;19.76;39.71;100071.06;5056067;28;45457;-50
2022/02/16 03:58:43;;;;;;;;;0.50;0.00;;;;;19.78;39.50;100066.53;5056997;28;45288;-48
2022/02/16 04:01:08;;;;;;;;;0.00;0.00;;;;;19.77;39.76;100075.38;5038840;28;45362;-47
2022/02/16 04:03:33;;;;;;;;;1.00;0.00;;;;;19.78;39.73;100082.31;5056558;28;45481;-46
2022/02/16 04:05:59;;;;;;;;;0.00;0.00;;;;;19.79;39.35;100077.91;5056470;28;45404;-49
2022/02/16 04:08:24;;;;;;;;;0.00;0.00;;;;;19.78;39.76;100074.44;5056904;28;45367;-44
2022/02/16 04:10:50;;;;;;;;;0.00;0.00;;;;;19.77;39.42;100075.38;5056844;28;45418;-48
2022/02/16 04:13:15;;;;;;;;;0.00;0.00;;;;;19.78;40.08;100065.69;5056729;28;45328;-46
2022/02/16 04:15:41;;;;;;;;;0.00;0.00;;;;;19.76;39.50;100068.41;5056287;28;46190;-44
2022/02/16 04:18:06;;;;;;;;;0.00;0.00;;;;;19.77;39.79;100066.63;5056634;28;45394;-47
2022/02/16 04:20:31;;;;;;;;;0.00;0.00;;;;;19.77;39.48;100054.34;5056789;28;45340;-48
2022/02/16 04:22:57;;;;;;;;;0.00;0.00;;;;;19.76;39.89;100057.91;5056311;28;45501;-49
2022/02/16 04:25:22;;;;;;;;;0.00;0.00;;;;;19.77;39.75;100058.72;5056319;28;45387;-45
2022/02/16 04:27:47;;;;;;;;;0.00;0.00;;;;;19.77;40.04;100064.00;5056752;28;45386;-44
2022/02/16 04:30:13;;;;;;;;;0.00;0.00;;;;;19.75;39.88;100058.84;5057208;28;45399;-48
2022/02/16 04:32:39;;;;;;;;;0.00;0.00;;;;;19.76;39.79;100065.78;5059850;28;46361;-47
2022/02/16 04:35:06;;;;;;;;;0.00;0.00;;;;;19.76;39.91;100063.16;5059851;28;45303;-47
2022/02/16 04:37:32;;;;;;;;;0.00;0.00;;;;;19.74;39.41;100067.66;5060032;28;45229;-45
2022/02/16 04:39:57;;;;;;;;;0.00;0.00;;;;;19.74;39.91;100057.16;5060194;28;45243;-47
2022/02/16 04:42:23;;;;;;;;;0.00;0.00;;;;;19.73;39.52;100052.84;5059724;28;45498;-44
2022/02/16 04:44:48;;;;;;;;;0.00;0.00;;;;;19.73;40.10;100052.84;5060235;28;45458;-47
2022/02/16 04:47:14;;;;;;;;;0.00;0.00;;;;;19.75;39.85;100052.72;5059833;28;45312;-45
2022/02/16 04:49:39;;;;;;;;;0.00;0.00;;;;;19.74;40.05;100053.66;5060003;28;45286;-44
2022/02/16 04:52:05;;;;;;;;;0.00;0.00;;;;;19.72;40.19;100040.63;5059367;28;45386;-47
2022/02/16 04:54:31;;;;;;;;;0.00;0.00;;;;;19.73;39.57;100039.69;5041425;28;45361;-45
2022/02/16 04:56:56;;;;;;;;;0.00;0.00;;;;;19.74;39.79;100048.41;5041608;28;45337;-48
2022/02/16 04:59:22;;;;;;;;;0.00;0.00;;;;;19.69;39.70;100040.81;5060214;28;45539;-43
2022/02/16 05:01:48;;;;;;;;;0.00;0.00;;;;;19.72;39.76;100043.25;5059724;28;47318;-46
2022/02/16 05:04:13;;;;;;;;;0.00;0.00;;;;;19.69;39.75;100040.81;5059587;28;45327;-46
2022/02/16 05:06:41;;;;;;;;;0.00;0.00;;;;;19.72;39.92;100045.06;5059539;28;45717;-46
2022/02/16 05:09:08;;;;;;;;;0.00;0.00;;;;;19.71;40.21;100044.19;5059739;28;45550;-44
2022/02/16 05:11:34;;;;;;;;;0.00;0.00;;;;;19.72;40.20;100030.13;5059446;28;45420;-45
2022/02/16 05:13:59;;;;;;;;;0.00;0.00;;;;;19.72;39.70;100035.38;5059185;28;45822;-46
2022/02/16 05:16:25;;;;;;;;;0.00;0.00;;;;;19.72;40.42;100038.00;5059499;28;45376;-46
2022/02/16 05:18:51;;;;;;;;;0.00;0.00;;;;;19.70;40.34;100042.50;5059814;28;45496;-46
2022/02/16 05:21:16;;;;;;;;;0.00;0.00;;;;;19.70;40.39;100037.25;5058898;28;46453;-46
2022/02/16 05:23:42;;;;;;;;;0.00;0.00;;;;;19.71;39.82;100048.63;5057942;28;45332;-46
2022/02/16 05:26:08;;;;;;;;;0.25;0.00;;;;;19.69;39.90;100038.19;5059235;28;45370;-48
2022/02/16 05:28:33;;;;;;;;;0.00;0.00;;;;;19.69;40.35;100051.34;5059306;28;45348;-44
2022/02/16 05:30:58;;;;;;;;;0.00;0.00;;;;;19.70;40.34;100046.94;5059161;28;46333;-46
2022/02/16 05:33:24;;;;;;;;;0.00;0.00;;;;;19.70;40.24;100036.41;5059065;28;45631;-47
2022/02/16 05:35:49;;;;;;;;;0.00;0.00;;;;;19.68;40.22;100033.88;5059426;28;45395;-47
2022/02/16 05:38:15;;;;;;;;;0.00;0.00;;;;;19.67;40.49;100047.13;5059120;28;45589;-47
2022/02/16 05:40:42;;;;;;;;;0.00;0.00;;;;;19.63;40.92;100038.59;5058725;28;45446;-48
2022/02/16 05:43:13;;;;;;;;;0.00;0.00;;;;;19.58;40.81;100038.03;5057722;28;45235;-50
2022/02/16 05:45:39;;;;;;;;;0.00;0.00;;;;;19.54;40.94;100036.56;5058813;28;45359;-44
2022/02/16 05:48:05;;;;;;;;;0.00;0.00;;;;;19.50;41.37;100043.81;5059141;28;45495;-48
2022/02/16 05:50:31;;;;;;;;;0.00;0.00;;;;;19.47;41.60;100044.00;5040676;28;46181;-47
2022/02/16 05:52:56;;;;;;;;;0.00;0.00;;;;;19.41;41.28;100045.22;5058543;28;45281;-48
2022/02/16 05:55:21;;;;;;;;;0.00;0.00;;;;;19.41;41.76;100052.25;5059173;28;45292;-48
2022/02/16 05:57:47;;;;;;;;;0.00;0.00;;;;;19.37;41.88;100048.97;5040827;28;45638;-48
2022/02/16 06:00:13;;;;;;;;;0.00;0.00;;;;;19.38;41.92;100050.66;5058272;28;50636;-47
2022/02/16 06:02:38;;;;;;;;;0.00;0.00;;;;;19.40;41.54;100040.06;5058449;28;45403;-46
2022/02/16 06:05:04;;;;;;;;;0.00;0.00;;;;;19.38;41.96;100036.69;5058555;28;45399;-48
2022/02/16 06:07:29;;;;;;;;;0.00;0.00;;;;;19.45;41.90;100043.25;5058585;28;45453;-44
2022/02/16 06:09:55;;;;;;;;;0.00;0.00;;;;;19.46;41.80;100035.25;5058636;28;45594;-47
2022/02/16 06:12:20;;;;;;;;;0.00;0.00;;;;;19.47;41.70;100057.97;5058236;28;45534;-48
2022/02/16 06:14:45;;;;;;;;;0.00;0.00;;;;;19.49;42.06;100057.03;5058288;28;45440;-48
2022/02/16 06:17:10;;;;;;;;;0.00;0.00;;;;;19.50;41.64;100061.34;5058689;28;45357;-47
2022/02/16 06:19:36;;;;;;;;;0.00;0.00;;;;;19.52;41.89;100062.09;5058100;28;46329;-47
2022/02/16 06:22:01;;;;;;;;;0.00;0.00;;;;;19.53;41.51;100055.91;5058195;28;45440;-47
2022/02/16 06:24:27;;;;;;;;;1.00;0.00;;;;;19.52;41.82;100060.28;5040173;28;45426;-48
2022/02/16 06:26:52;;;;;;;;;0.00;0.00;;;;;19.51;41.66;100063.03;5058502;28;45701;-45
2022/02/16 06:29:17;;;;;;;;;1.00;0.00;;;;;19.54;41.52;100057.59;5058026;28;46862;-46
2022/02/16 06:31:43;;;;;;;;;0.00;0.00;;;;;19.54;41.31;100039.19;5058063;28;45305;-44
2022/02/16 06:34:08;;;;;;;;;0.00;0.00;;;;;19.54;41.50;100045.28;5058199;28;45317;-45
2022/02/16 06:36:36;;;;;;;;;0.00;0.00;;;;;19.54;42.00;100044.44;5058380;28;45616;-48
2022/02/16 06:39:02;;;;;;;;;0.50;0.00;;;;;19.53;41.66;100061.16;5055620;28;45771;-49
2022/02/16 06:41:28;;;;;;;;;0.00;0.00;;;;;19.54;41.54;100065.47;5058103;28;45708;-46
2022/02/16 06:43:53;;;;;;;;;0.00;0.00;;;;;19.56;41.70;100063.59;5058213;28;45431;-46
2022/02/16 06:46:19;;;;;;;;;0.00;0.00;;;;;19.53;41.32;100061.16;5058020;28;45328;-47
2022/02/16 06:48:44;;;;;;;;;0.00;0.00;;;;;19.54;41.50;100058.41;5057674;28;45469;-48
2022/02/16 06:51:09;;;;;;;;;0.00;0.00;;;;;19.55;41.84;100064.53;5057709;28;45482;-48
2022/02/16 06:53:35;;;;;;;;;0.00;0.00;;;;;19.55;41.50;100056.66;5057653;28;45327;-48
2022/02/16 06:56:00;;;;;;;;;0.00;0.00;;;;;19.55;41.58;100069.78;5058073;28;45457;-48
2022/02/16 06:58:26;;;;;;;;;0.00;0.00;;;;;19.53;41.58;100077.75;5057919;28;45423;-47
2022/02/16 07:00:51;;;;;;;;;0.00;0.00;;;;;19.54;41.49;100094.38;5057654;28;45416;-48
2022/02/16 07:03:17;;;;;;;;;0.00;0.00;;;;;19.56;41.64;100097.78;5057934;28;45249;-50
2022/02/16 07:05:44;;;;;;;;;0.00;0.00;;;;;19.55;41.54;100093.44;5057805;28;45659;-49
2022/02/16 07:08:09;;;;;;;;;0.00;0.00;;;;;19.56;41.81;100092.50;5057763;28;45424;-46
2022/02/16 07:10:34;;;;;;;;;0.00;0.00;;;;;19.56;41.26;100092.50;5057408;28;45404;-46
2022/02/16 07:13:00;;;;;;;;;0.00;0.00;;;;;19.55;41.49;100096.06;5057569;28;45245;-49
2022/02/16 07:15:26;;;;;;;;;0.00;0.00;;;;;19.56;41.61;100103.03;5057798;28;45621;-45
2022/02/16 07:17:52;;;;;;;;;0.00;0.00;;;;;19.56;41.73;100113.53;5057411;28;47303;-53
2022/02/16 07:20:17;;;;;;;;;0.00;0.00;;;;;19.56;41.74;100108.28;5057362;28;45285;-48
2022/02/16 07:22:48;;;;;;;;;0.00;0.00;;;;;19.56;41.47;100108.28;5057417;28;45228;-49
2022/02/16 07:25:15;;;;;;;;;0.00;0.00;;;;;19.55;41.83;100104.78;5057640;28;45572;-47
2022/02/16 07:27:40;;;;;;;;;0.00;0.00;;;;;19.56;41.81;100095.13;5057239;28;45266;-50
2022/02/16 07:30:09;;;;;;;;;0.00;0.00;;;;;19.57;41.56;100094.16;5057310;28;45356;-45
2022/02/16 07:32:41;;;;;;;;;0.00;0.00;;;;;19.55;41.33;100081.13;5057273;28;45510;-50
2022/02/16 07:35:08;;;;;;;;;0.00;0.00;;;;;19.63;41.72;100088.53;5057667;28;45555;-66
2022/02/16 07:37:34;;;;;;;;;0.00;0.00;;;;;19.71;41.22;100086.25;5057209;28;45443;-67
2022/02/16 07:40:00;;;;;;;;;0.00;0.00;;;;;19.72;41.64;100082.69;5057351;28;45348;-66
2022/02/16 07:42:28;;;;;;;;;0.00;0.00;;;;;19.74;41.69;100083.44;5057306;28;45864;-66
2022/02/16 07:44:54;;;;;;;;;0.00;0.00;;;;;19.72;42.03;100081.88;5057383;28;45587;-68
2022/02/16 07:47:21;;;;;;;;;0.00;0.00;;;;;19.76;42.09;100102.59;5056786;28;45343;-64
2022/02/16 07:49:46;;;;;;;;;0.00;0.00;;;;;19.73;41.92;100102.78;5057026;28;45384;-63
2022/02/16 07:52:12;;;;;;;;;0.00;0.00;;;;;19.76;41.84;100118.38;5057084;28;45253;-62
2022/02/16 07:54:37;;;;;;;;;0.00;0.00;;;;;19.75;41.69;100119.31;5039176;28;45515;-62
2022/02/16 07:57:03;;;;;;;;;0.00;0.00;;;;;19.74;42.13;100111.50;5057052;28;45305;-61
2022/02/16 07:59:29;;;;;;;;;0.00;0.00;;;;;19.73;41.93;100123.81;5057259;28;45360;-59
2022/02/16 08:01:56;;;;;;;;;0.25;0.00;;;;;19.75;42.46;100114.06;5056901;28;45360;-59
2022/02/16 08:04:22;;;;;;;;;0.00;0.00;;;;;19.75;42.44;100119.31;5057046;28;46178;-60
2022/02/16 08:06:48;;;;;;;;;0.00;0.00;;;;;19.76;42.78;100110.50;5056123;28;45587;-61
2022/02/16 08:09:16;;;;;;;;;0.00;0.00;;;;;19.75;42.25;100110.56;5056698;28;45436;-64
2022/02/16 08:11:43;;;;;;;;;0.00;0.00;;;;;19.72;42.74;100102.91;5056901;28;45269;-57
2022/02/16 08:14:10;;;;;;;;;0.00;0.00;;;;;19.75;42.20;100105.31;5038548;28;45702;-59
2022/02/16 08:16:36;;;;;;;;;0.00;0.00;;;;;19.74;42.78;100114.13;5056459;28;46074;-60
2022/02/16 08:19:04;;;;;;;;;0.25;0.25;;;;;19.74;42.39;100098.34;5056890;28;45387;-67
2022/02/16 08:21:29;;;;;;;;;0.00;0.00;;;;;19.71;42.55;100109.94;5056861;28;45363;-63
2022/02/16 08:23:55;;;;;;;;;1.50;0.75;;;;;19.70;42.81;100112.66;5056625;28;45203;-63
2022/02/16 08:26:20;;;;;;;;;0.25;0.00;;;;;19.74;43.00;100132.53;5056109;28;45349;-62
2022/02/16 08:28:46;;;;;;;;;1.00;1.00;;;;;19.74;43.14;100137.81;5056257;28;45310;-58
2022/02/16 08:31:12;;;;;;;;;1.00;1.00;;;;;19.70;42.92;100125.81;5056325;28;45392;-64
2022/02/16 08:33:37;;;;;;;;;1.25;1.25;;;;;19.74;42.59;100124.66;5056481;28;45407;-64
2022/02/16 08:36:04;;;;;;;;;1.00;1.00;;;;;19.72;42.88;100132.66;5056376;28;45421;-63
2022/02/16 08:38:29;;;;;;;;;1.00;1.00;;;;;19.74;42.95;100132.53;5056640;28;45839;-67
2022/02/16 08:40:56;;;;;;;;;2.00;2.00;;;;;19.75;43.30;100128.97;5056389;28;45323;-68
2022/02/16 08:43:21;;;;;;;;;2.00;0.00;;;;;19.75;43.14;100134.22;5055113;28;45448;-69
2022/02/16 08:45:47;;;;;;;;;2.00;1.00;;;;;19.71;43.04;100132.75;5055998;28;45428;-63
2022/02/16 08:48:12;;;;;;;;;0.25;0.00;;;;;19.73;43.48;100121.19;5054689;28;45652;-65
2022/02/16 08:50:38;;;;;;;;;0.75;0.75;;;;;19.74;43.36;100125.50;5056048;28;45249;-57
2022/02/16 08:53:04;;;;;;;;;0.50;0.50;;;;;19.72;43.38;100116.88;5056540;28;45629;-61
2022/02/16 08:55:30;;;;;;;;;1.00;1.00;;;;;19.74;43.06;100137.81;5038072;28;48040;-60
2022/02/16 08:57:55;;;;;;;;;1.00;1.00;;;;;19.72;43.18;100116.88;5055921;28;45327;-59
2022/02/16 09:00:21;;;;;;;;;0.00;0.00;;;;;19.72;43.20;100118.69;5056045;28;45439;-63
2022/02/16 09:02:46;;;;;;;;;1.00;1.00;;;;;19.71;43.07;100130.97;5056162;28;45322;-59
2022/02/16 09:05:12;;;;;;;;;0.00;0.00;;;;;19.73;43.78;100144.03;5055927;28;46477;-58
2022/02/16 09:07:37;;;;;;;;;0.00;0.00;;;;;19.72;43.86;100151.06;5037737;28;45796;-61
2022/02/16 09:10:08;;;;;;;;;1.25;1.25;;;;;19.73;43.94;100141.41;5056264;28;45322;-60
2022/02/16 09:12:35;;;;;;;;;1.00;0.50;;;;;19.72;43.82;100145.78;5056348;28;45385;-64
2022/02/16 09:15:00;;;;;;;;;1.00;1.00;;;;;19.72;43.91;100137.09;5055634;28;46689;-56
2022/02/16 09:17:26;;;;;;;;;2.25;0.50;;;;;19.71;43.77;100133.59;5057968;28;45360;-56
2022/02/16 09:19:52;;;;;;;;;0.00;0.00;;;;;19.71;43.80;100149.38;5059352;28;45359;-54
2022/02/16 09:22:19;;;;;;;;;0.25;0.25;;;;;19.69;43.77;100151.25;5059441;28;45446;-55
2022/02/16 09:24:45;;;;;;;;;0.75;0.25;;;;;19.69;43.72;100151.25;5059196;28;45644;-60
2022/02/16 09:27:11;;;;;;;;;0.50;0.00;;;;;19.73;44.05;100158.00;5058526;28;45402;-65
2022/02/16 09:29:36;;;;;;;;;0.00;0.00;;;;;19.74;43.96;100153.56;5059377;28;45411;-57
2022/02/16 09:32:02;;;;;;;;;0.00;0.00;;;;;19.70;43.94;100162.63;5041546;28;45435;-63
2022/02/16 09:34:28;;;;;;;;;0.00;0.00;;;;;19.70;44.10;100173.97;5058944;28;45333;-61
2022/02/16 09:36:53;;;;;;;;;0.00;0.00;;;;;19.72;44.03;100166.81;5058942;28;45339;-64
2022/02/16 09:39:19;;;;;;;;;1.00;1.00;;;;;19.73;43.92;100172.94;5059878;28;45289;-64
2022/02/16 09:41:46;;;;;;;;;0.75;0.75;;;;;19.71;43.93;100167.78;5059005;28;45320;-65
2022/02/16 09:44:13;;;;;;;;;1.00;1.00;;;;;19.76;44.06;100172.72;5058796;28;46113;-61
2022/02/16 09:46:39;;;;;;;;;0.00;0.00;;;;;19.76;43.70;100172.72;5058636;28;45813;-60
2022/02/16 09:49:04;;;;;;;;;0.25;0.25;;;;;19.77;44.07;100184.94;5059394;28;45335;-60
2022/02/16 09:51:30;;;;;;;;;0.00;0.00;;;;;19.77;43.79;100174.44;5059113;28;45622;-61
2022/02/16 09:53:55;;;;;;;;;2.00;0.00;;;;;19.75;43.49;100169.28;5058592;28;45431;-62
2022/02/16 09:56:21;;;;;;;;;1.00;0.00;;;;;19.79;44.01;100172.56;5058624;28;45391;-61
2022/02/16 09:58:46;;;;;;;;;0.25;0.00;;;;;19.78;43.68;100165.59;5058744;28;45334;-58
2022/02/16 10:01:15;;;;;;;;;0.00;0.00;;;;;19.77;43.90;100170.03;5057475;28;45349;-64
2022/02/16 10:04:04;;;;;;;;;0.00;0.00;;;;;19.76;44.08;100167.47;5058462;28;45493;-62
2022/02/16 10:06:40;;;;;;;;;1.00;0.00;;;;;19.77;44.06;100180.53;5058493;28;45767;-63
2022/02/16 10:09:06;;;;;;;;;1.50;0.00;;;;;19.78;43.95;100176.13;5058691;28;45380;-64
2022/02/16 10:11:32;;;;;;;;;0.00;0.00;;;;;19.76;44.04;100164.84;5058824;28;45383;-63
2022/02/16 10:14:22;;;;;;;;;1.25;1.00;;;;;19.75;44.06;100164.00;5058098;28;46945;-64
2022/02/16 10:16:47;;;;;;;;;0.00;0.00;;;;;19.76;44.18;100172.72;5058433;28;45758;-64
2022/02/16 10:19:14;;;;;;;;;0.00;0.00;;;;;19.76;43.94;100178.00;5058331;28;45347;-64
2022/02/16 10:21:58;;;;;;;;;0.50;0.00;;;;;19.73;44.10;100176.41;5058502;28;45417;-55
2022/02/16 10:24:24;;;;;;;;;0.25;0.25;;;;;19.72;44.04;100179.16;5058322;28;45700;-65
2022/02/16 10:26:54;;;;;;;;;0.00;0.00;;;;;19.73;44.35;100173.78;5058019;28;45430;-60
2022/02/16 10:29:22;;;;;;;;;1.50;0.00;;;;;19.70;44.48;100171.34;5057597;28;45297;-62
2022/02/16 10:31:47;;;;;;;;;0.00;0.00;;;;;19.72;44.44;100172.09;5058223;28;45231;-62
2022/02/16 10:34:13;;;;;;;;;0.00;0.00;;;;;19.74;44.25;100185.13;5057873;28;46482;-64
2022/02/16 10:36:38;;;;;;;;;1.00;0.00;;;;;19.76;44.69;100184.13;5058377;28;45432;-65
2022/02/16 10:39:06;;;;;;;;;0.00;0.00;;;;;19.77;44.29;100175.28;5058175;28;45848;-63
2022/02/16 10:41:40;;;;;;;;;0.00;0.00;;;;;19.79;44.29;100196.22;5058267;28;45458;-59
2022/02/16 10:44:20;;;;;;;;;0.00;0.00;;;;;19.79;44.36;100183.06;5058127;28;46241;-65
2022/02/16 10:47:01;;;;;;;;;0.00;0.00;;;;;19.77;44.21;100185.81;5057723;28;45590;-61
2022/02/16 10:49:27;;;;;;;;;0.00;0.00;;;;;19.77;44.22;100183.19;5057975;28;45261;-64
2022/02/16 10:52:10;;;;;;;;;0.00;0.00;;;;;19.78;44.49;100203.28;5057089;28;45547;-64
2022/02/16 10:54:36;;;;;;;;;1.00;1.00;;;;;19.77;44.71;100206.84;5057863;28;46047;-61
2022/02/16 10:57:03;;;;;;;;;0.00;0.00;;;;;19.73;44.50;100207.97;5039701;28;46182;-63
2022/02/16 10:59:28;;;;;;;;;0.00;0.00;;;;;19.77;44.58;100219.13;5057717;28;45469;-64
2022/02/16 11:01:55;;;;;;;;;0.00;0.00;;;;;19.77;44.98;100206.84;5057950;28;45365;-60
2022/02/16 11:04:21;;;;;;;;;1.25;1.00;;;;;19.73;44.52;100205.34;5057365;28;45526;-64
2022/02/16 11:06:48;;;;;;;;;1.00;0.00;;;;;19.75;44.83;100218.38;5057355;28;45698;-62
2022/02/16 11:09:18;;;;;;;;;0.00;0.00;;;;;19.76;44.76;100235.84;5057614;28;45407;-63
2022/02/16 11:11:44;;;;;;;;;0.50;0.50;;;;;19.74;44.66;100222.81;5057661;28;45428;-65
2022/02/16 11:14:10;;;;;;;;;0.00;0.00;;;;;19.75;44.68;100232.38;5057631;28;46346;-65
2022/02/16 11:16:38;;;;;;;;;0.00;0.00;;;;;19.75;44.98;100236.78;5057976;28;45791;-65
2022/02/16 11:19:35;;;;;;;;;0.00;0.00;;;;;19.74;44.97;100222.81;5057500;28;45372;-63